createdAt,value
2018-06-15T00:00:47.031Z,24.6
2018-06-15T00:01:48.031Z,24.5
2018-06-15T00:02:49.027Z,24.5
2018-06-15T00:03:50.179Z,24.6
2018-06-15T00:04:51.027Z,24.5
2018-06-15T00:05:52.029Z,24.6
2018-06-15T00:06:53.023Z,24.7
2018-06-15T00:07:54.025Z,24.6
2018-06-15T00:08:55.023Z,24.7
2018-06-15T00:09:56.026Z,24.6
2018-06-15T00:10:57.023Z,24.5
2018-06-15T00:11:58.022Z,24.6
2018-06-15T00:12:59.016Z,24.5
2018-06-15T00:14:00.067Z,24.5
2018-06-15T00:15:01.016Z,24.5
2018-06-15T00:16:02.017Z,24.5
2018-06-15T00:17:03.016Z,24.5
2018-06-15T00:18:04.012Z,24.5
2018-06-15T00:19:05.366Z,24.4
2018-06-15T00:20:06.011Z,24.5
2018-06-15T00:21:07.012Z,24.5
2018-06-15T00:22:08.009Z,24.5
2018-06-15T00:23:09.008Z,24.6
2018-06-15T00:24:10.156Z,24.5
2018-06-15T00:25:11.000Z,24.5
2018-06-15T00:26:12.004Z,24.5
2018-06-15T00:27:13.001Z,24.6
2018-06-15T00:28:13.999Z,24.4
2018-06-15T00:29:15.051Z,24.5
2018-06-15T00:30:16.000Z,24.5
2018-06-15T00:31:16.997Z,24.6
2018-06-15T00:32:17.991Z,24.6
2018-06-15T00:33:18.993Z,24.5
2018-06-15T00:34:20.093Z,24.5
2018-06-15T00:35:20.998Z,24.5
2018-06-15T00:36:21.991Z,24.5
2018-06-15T00:37:22.992Z,24.6
2018-06-15T00:38:23.989Z,24.6
2018-06-15T00:39:25.339Z,24.4
2018-06-15T00:40:25.985Z,24.5
2018-06-15T00:41:26.987Z,24.6
2018-06-15T00:42:27.986Z,24.5
2018-06-15T00:43:28.984Z,24.6
2018-06-15T00:44:30.030Z,24.5
2018-06-15T00:45:30.980Z,24.5
2018-06-15T00:46:31.981Z,24.4
2018-06-15T00:47:32.982Z,24.4
2018-06-15T00:48:33.979Z,24.4
2018-06-15T00:49:35.328Z,24.5
2018-06-15T00:50:35.974Z,24.5
2018-06-15T00:51:36.975Z,24.5
2018-06-15T00:52:37.973Z,24.4
2018-06-15T00:53:38.972Z,24.6
2018-06-15T00:54:40.035Z,24.6
2018-06-15T00:55:40.973Z,24.4
2018-06-15T00:56:41.964Z,24.5
2018-06-15T00:57:42.968Z,24.4
2018-06-15T00:58:43.979Z,24.4
2018-06-15T00:59:44.970Z,24.5
2018-06-15T01:00:45.961Z,24.5
2018-06-15T01:01:46.964Z,24.4
2018-06-15T01:02:47.963Z,24.4
2018-06-15T01:03:48.964Z,24.5
2018-06-15T01:04:49.961Z,24.5
2018-06-15T01:05:50.958Z,24.4
2018-06-15T01:06:51.955Z,24.5
2018-06-15T01:07:52.954Z,24.4
2018-06-15T01:08:53.959Z,24.5
2018-06-15T01:09:55.100Z,24.5
2018-06-15T01:10:55.949Z,24.6
2018-06-15T01:11:56.950Z,24.6
2018-06-15T01:12:57.951Z,24.4
2018-06-15T01:13:58.946Z,24.5
2018-06-15T01:15:00.068Z,24.6
2018-06-15T01:16:00.946Z,24.5
2018-06-15T01:17:01.943Z,24.4
2018-06-15T01:18:02.941Z,24.5
2018-06-15T01:19:03.943Z,24.5
2018-06-15T01:20:04.988Z,24.5
2018-06-15T01:21:05.941Z,24.5
2018-06-15T01:22:06.940Z,24.5
2018-06-15T01:23:07.933Z,24.5
2018-06-15T01:24:08.937Z,24.5
2018-06-15T01:25:09.982Z,24.5
2018-06-15T01:26:10.933Z,24.4
2018-06-15T01:27:11.932Z,24.4
2018-06-15T01:28:12.930Z,24.4
2018-06-15T01:29:13.931Z,24.5
2018-06-15T01:30:14.977Z,24.4
2018-06-15T01:31:15.928Z,24.4
2018-06-15T01:32:16.925Z,24.4
2018-06-15T01:33:17.926Z,24.5
2018-06-15T01:34:18.925Z,24.5
2018-06-15T01:35:20.072Z,24.5
2018-06-15T01:36:20.922Z,24.5
2018-06-15T01:37:21.924Z,24.3
2018-06-15T01:38:22.924Z,24.4
2018-06-15T01:39:23.920Z,24.5
2018-06-15T01:40:24.923Z,24.4
2018-06-15T01:41:25.917Z,24.4
2018-06-15T01:42:26.914Z,24.4
2018-06-15T01:43:27.911Z,24.4
2018-06-15T01:44:28.913Z,24.5
2018-06-15T01:45:29.962Z,24.5
2018-06-15T01:46:30.913Z,24.6
2018-06-15T01:47:31.906Z,24.4
2018-06-15T01:48:32.908Z,24.5
2018-06-15T01:49:33.909Z,24.4
2018-06-15T01:50:35.061Z,24.4
2018-06-15T01:51:35.910Z,24.4
2018-06-15T01:52:36.903Z,24.4
2018-06-15T01:53:37.901Z,24.5
2018-06-15T01:54:38.904Z,24.5
2018-06-15T01:55:39.902Z,24.4
2018-06-15T01:56:40.902Z,24.4
2018-06-15T01:57:41.896Z,24.4
2018-06-15T01:58:42.893Z,24.5
2018-06-15T01:59:43.900Z,24.5
2018-06-15T02:00:44.946Z,24.4
2018-06-15T02:01:45.896Z,24.4
2018-06-15T02:02:46.894Z,24.4
2018-06-15T02:03:47.894Z,24.5
2018-06-15T02:04:48.886Z,24.6
2018-06-15T02:05:50.238Z,24.4
2018-06-15T02:06:50.886Z,24.4
2018-06-15T02:07:51.889Z,24.4
2018-06-15T02:08:52.888Z,24.4
2018-06-15T02:09:53.883Z,24.4
2018-06-15T02:10:54.983Z,24.4
2018-06-15T02:11:55.881Z,24.5
2018-06-15T02:12:56.879Z,24.4
2018-06-15T02:13:57.878Z,24.4
2018-06-15T02:14:58.873Z,24.5
2018-06-15T02:16:00.224Z,24.3
2018-06-15T02:17:00.874Z,24.5
2018-06-15T02:18:01.878Z,24.4
2018-06-15T02:19:02.870Z,24.4
2018-06-15T02:20:03.871Z,24.4
2018-06-15T02:21:05.019Z,24.3
2018-06-15T02:22:05.871Z,24.4
2018-06-15T02:23:06.869Z,24.4
2018-06-15T02:24:07.870Z,24.5
2018-06-15T02:25:08.867Z,24.4
2018-06-15T02:26:09.915Z,24.5
2018-06-15T02:27:10.862Z,24.4
2018-06-15T02:28:11.864Z,24.4
2018-06-15T02:29:12.859Z,24.3
2018-06-15T02:30:13.858Z,24.5
2018-06-15T02:31:14.967Z,24.4
2018-06-15T02:32:15.858Z,24.4
2018-06-15T02:33:16.859Z,24.4
2018-06-15T02:34:17.856Z,24.4
2018-06-15T02:35:18.856Z,24.3
2018-06-15T02:36:19.904Z,24.4
2018-06-15T02:37:20.854Z,24.4
2018-06-15T02:38:21.853Z,24.4
2018-06-15T02:39:22.852Z,24.3
2018-06-15T02:40:23.856Z,24.3
2018-06-15T02:41:24.995Z,24.4
2018-06-15T02:42:25.846Z,24.5
2018-06-15T02:43:26.848Z,24.5
2018-06-15T02:44:27.845Z,24.4
2018-06-15T02:45:28.926Z,24.3
2018-06-15T02:46:29.897Z,24.4
2018-06-15T02:47:30.842Z,24.4
2018-06-15T02:48:31.835Z,24.4
2018-06-15T02:49:32.839Z,24.4
2018-06-15T02:50:33.837Z,24.3
2018-06-15T02:51:34.834Z,24.4
2018-06-15T02:52:35.880Z,24.4
2018-06-15T02:53:36.833Z,24.3
2018-06-15T02:54:37.833Z,24.4
2018-06-15T02:55:38.834Z,24.4
2018-06-15T02:56:39.834Z,24.2
2018-06-15T02:57:40.833Z,24.4
2018-06-15T02:58:41.844Z,24.3
2018-06-15T02:59:42.829Z,24.4
2018-06-15T03:00:43.827Z,24.4
2018-06-15T03:01:45.174Z,24.3
2018-06-15T03:02:45.826Z,24.3
2018-06-15T03:03:46.824Z,24.4
2018-06-15T03:04:47.824Z,24.2
2018-06-15T03:05:48.819Z,24.4
2018-06-15T03:06:49.870Z,24.3
2018-06-15T03:07:50.815Z,24.3
2018-06-15T03:08:51.815Z,24.3
2018-06-15T03:09:52.813Z,24.3
2018-06-15T03:10:53.813Z,24.4
2018-06-15T03:11:54.814Z,24.3
2018-06-15T03:12:55.812Z,24.3
2018-06-15T03:13:56.812Z,24.4
2018-06-15T03:14:57.807Z,24.3
2018-06-15T03:15:58.805Z,24.4
2018-06-15T03:16:59.957Z,24.3
2018-06-15T03:18:00.807Z,24.3
2018-06-15T03:19:01.801Z,24.3
2018-06-15T03:20:02.803Z,24.3
2018-06-15T03:21:03.797Z,24.3
2018-06-15T03:22:04.848Z,24.3
2018-06-15T03:23:05.801Z,24.2
2018-06-15T03:24:06.792Z,24.3
2018-06-15T03:25:07.815Z,24.4
2018-06-15T03:26:08.799Z,24.3
2018-06-15T03:27:10.149Z,24.4
2018-06-15T03:28:10.798Z,24.3
2018-06-15T03:29:11.790Z,24.3
2018-06-15T03:30:12.797Z,24.3
2018-06-15T03:31:13.789Z,24.5
2018-06-15T03:32:14.782Z,24.3
2018-06-15T03:33:15.787Z,24.4
2018-06-15T03:34:16.785Z,24.3
2018-06-15T03:35:17.783Z,24.3
2018-06-15T03:36:18.788Z,24.3
2018-06-15T03:37:19.782Z,24.4
2018-06-15T03:38:20.783Z,24.4
2018-06-15T03:39:21.779Z,24.4
2018-06-15T03:40:22.779Z,24.4
2018-06-15T03:41:23.778Z,24.3
2018-06-15T03:42:24.775Z,24.3
2018-06-15T03:43:25.777Z,24.3
2018-06-15T03:44:26.776Z,24.3
2018-06-15T03:45:27.773Z,24.3
2018-06-15T03:46:28.773Z,24.3
2018-06-15T03:47:29.922Z,24.3
2018-06-15T03:48:30.773Z,24.3
2018-06-15T03:49:31.763Z,24.4
2018-06-15T03:50:32.766Z,24.4
2018-06-15T03:51:33.767Z,24.4
2018-06-15T03:52:34.862Z,24.4
2018-06-15T03:53:35.761Z,24.4
2018-06-15T03:54:36.764Z,24.3
2018-06-15T03:55:37.760Z,24.3
2018-06-15T03:56:38.758Z,24.3
2018-06-15T03:57:40.111Z,24.3
2018-06-15T03:58:40.757Z,24.4
2018-06-15T03:59:41.754Z,24.3
2018-06-15T04:00:42.759Z,24.3
2018-06-15T04:01:43.751Z,24.4
2018-06-15T04:02:44.752Z,24.4
2018-06-15T04:03:45.753Z,24.3
2018-06-15T04:04:46.749Z,24.3
2018-06-15T04:05:47.752Z,24.3
2018-06-15T04:06:48.746Z,24.3
2018-06-15T04:07:49.898Z,24.4
2018-06-15T04:08:50.744Z,24.3
2018-06-15T04:09:51.744Z,24.4
2018-06-15T04:10:52.748Z,24.3
2018-06-15T04:11:53.743Z,24.3
2018-06-15T04:12:54.831Z,24.4
2018-06-15T04:13:55.740Z,24.4
2018-06-15T04:14:56.740Z,24.3
2018-06-15T04:15:57.737Z,24.4
2018-06-15T04:16:58.739Z,24.4
2018-06-15T04:17:59.782Z,24.3
2018-06-15T04:19:00.732Z,24.3
2018-06-15T04:20:01.735Z,24.3
2018-06-15T04:21:02.733Z,24.2
2018-06-15T04:22:03.729Z,24.4
2018-06-15T04:23:04.828Z,24.3
2018-06-15T04:24:05.726Z,24.3
2018-06-15T04:25:06.728Z,24.3
2018-06-15T04:26:07.723Z,24.3
2018-06-15T04:27:08.725Z,24.3
2018-06-15T04:28:09.878Z,24.3
2018-06-15T04:29:10.721Z,24.3
2018-06-15T04:30:11.727Z,24.3
2018-06-15T04:31:12.718Z,24.3
2018-06-15T04:32:13.717Z,24.2
2018-06-15T04:33:14.772Z,24.2
2018-06-15T04:34:15.717Z,24.2
2018-06-15T04:35:16.716Z,24.2
2018-06-15T04:36:17.715Z,24.2
2018-06-15T04:37:18.739Z,24.3
2018-06-15T04:38:19.710Z,24.3
2018-06-15T04:39:20.709Z,24.3
2018-06-15T04:40:21.711Z,24.3
2018-06-15T04:41:22.708Z,24.4
2018-06-15T04:42:23.704Z,24.3
2018-06-15T04:43:24.868Z,24.4
2018-06-15T04:44:25.702Z,24.2
2018-06-15T04:45:26.705Z,24.2
2018-06-15T04:46:27.701Z,24.3
2018-06-15T04:47:28.703Z,24.3
2018-06-15T04:48:29.849Z,24.2
2018-06-15T04:49:30.698Z,24.3
2018-06-15T04:50:31.702Z,24.2
2018-06-15T04:51:32.697Z,24.3
2018-06-15T04:52:33.693Z,24.2
2018-06-15T04:53:34.694Z,24.2
2018-06-15T04:54:35.693Z,24.2
2018-06-15T04:55:36.689Z,24.3
2018-06-15T04:56:37.693Z,24.3
2018-06-15T04:57:38.688Z,24.2
2018-06-15T04:58:39.688Z,24.3
2018-06-15T04:59:40.697Z,24.3
2018-06-15T05:00:41.685Z,24.2
2018-06-15T05:01:42.684Z,24.3
2018-06-15T05:02:43.688Z,24.3
2018-06-15T05:03:44.779Z,24.4
2018-06-15T05:04:45.696Z,24.3
2018-06-15T05:05:46.683Z,24.3
2018-06-15T05:06:47.678Z,24.3
2018-06-15T05:07:48.675Z,24.5
2018-06-15T05:08:49.829Z,24.3
2018-06-15T05:09:50.676Z,24.4
2018-06-15T05:10:51.672Z,24.3
2018-06-15T05:11:52.673Z,24.3
2018-06-15T05:12:53.674Z,24.3
2018-06-15T05:13:54.720Z,24.4
2018-06-15T05:14:55.673Z,24.3
2018-06-15T05:15:56.668Z,24.5
2018-06-15T05:16:57.671Z,24.4
2018-06-15T05:17:58.674Z,24.4
2018-06-15T05:18:59.719Z,24.3
2018-06-15T05:20:00.665Z,24.4
2018-06-15T05:21:01.669Z,24.3
2018-06-15T05:22:02.663Z,24.5
2018-06-15T05:23:03.661Z,24.3
2018-06-15T05:24:04.808Z,24.4
2018-06-15T05:25:05.661Z,24.3
2018-06-15T05:26:06.662Z,24.4
2018-06-15T05:27:07.658Z,24.4
2018-06-15T05:28:08.661Z,24.4
2018-06-15T05:29:09.804Z,24.5
2018-06-15T05:30:10.657Z,24.3
2018-06-15T05:31:11.655Z,24.3
2018-06-15T05:32:12.653Z,24.3
2018-06-15T05:33:13.651Z,24.3
2018-06-15T05:34:14.654Z,24.3
2018-06-15T05:35:15.683Z,24.3
2018-06-15T05:36:16.647Z,24.3
2018-06-15T05:37:17.644Z,24.3
2018-06-15T05:38:18.642Z,24.3
2018-06-15T05:39:19.694Z,24.3
2018-06-15T05:40:20.644Z,24.3
2018-06-15T05:41:21.641Z,24.2
2018-06-15T05:42:22.644Z,24.4
2018-06-15T05:43:23.636Z,24.3
2018-06-15T05:44:24.695Z,24.3
2018-06-15T05:45:25.635Z,24.4
2018-06-15T05:46:26.634Z,24.4
2018-06-15T05:47:27.635Z,24.3
2018-06-15T05:48:28.632Z,24.3
2018-06-15T05:49:29.779Z,24.2
2018-06-15T05:50:30.631Z,24.3
2018-06-15T05:51:31.627Z,24.2
2018-06-15T05:52:32.626Z,24.4
2018-06-15T05:53:33.625Z,24.3
2018-06-15T05:54:34.977Z,24.3
2018-06-15T05:55:35.623Z,24.3
2018-06-15T05:56:36.620Z,24.4
2018-06-15T05:57:37.619Z,24.4
2018-06-15T05:58:38.620Z,24.3
2018-06-15T05:59:39.717Z,24.3
2018-06-15T06:00:40.617Z,24.3
2018-06-15T06:01:41.618Z,24.5
2018-06-15T06:02:42.615Z,24.3
2018-06-15T06:03:43.616Z,24.4
2018-06-15T06:04:44.963Z,24.5
2018-06-15T06:05:45.611Z,24.3
2018-06-15T06:06:46.610Z,24.4
2018-06-15T06:07:47.609Z,24.4
2018-06-15T06:08:48.611Z,24.5
2018-06-15T06:09:49.659Z,24.5
2018-06-15T06:10:50.609Z,24.4
2018-06-15T06:11:51.604Z,24.5
2018-06-15T06:12:52.605Z,24.5
2018-06-15T06:13:53.604Z,24.5
2018-06-15T06:14:54.759Z,24.5
2018-06-15T06:15:55.601Z,24.5
2018-06-15T06:16:56.603Z,24.4
2018-06-15T06:17:57.602Z,24.5
2018-06-15T06:18:58.599Z,24.3
2018-06-15T06:19:59.610Z,24.3
2018-06-15T06:21:00.595Z,24.3
2018-06-15T06:22:01.594Z,24.6
2018-06-15T06:23:02.591Z,24.3
2018-06-15T06:24:03.597Z,24.3
2018-06-15T06:25:04.944Z,24.4
2018-06-15T06:26:05.590Z,24.5
2018-06-15T06:27:06.594Z,24.3
2018-06-15T06:28:07.586Z,24.4
2018-06-15T06:29:08.581Z,24.4
2018-06-15T06:30:09.687Z,24.4
2018-06-15T06:31:10.581Z,24.4
2018-06-15T06:32:11.581Z,24.4
2018-06-15T06:33:12.583Z,24.4
2018-06-15T06:34:13.578Z,24.3
2018-06-15T06:35:14.680Z,24.5
2018-06-15T06:36:15.582Z,24.4
2018-06-15T06:37:16.587Z,24.5
2018-06-15T06:38:17.574Z,24.6
2018-06-15T06:39:18.576Z,24.5
2018-06-15T06:40:19.571Z,24.6
2018-06-15T06:41:20.569Z,24.6
2018-06-15T06:42:21.568Z,24.6
2018-06-15T06:43:22.577Z,24.7
2018-06-15T06:44:23.568Z,24.5
2018-06-15T06:45:24.666Z,24.7
2018-06-15T06:46:25.568Z,24.6
2018-06-15T06:47:26.563Z,24.7
2018-06-15T06:48:27.566Z,24.6
2018-06-15T06:49:28.563Z,24.6
2018-06-15T06:50:29.774Z,24.5
2018-06-15T06:51:30.559Z,24.5
2018-06-15T06:52:31.558Z,24.5
2018-06-15T06:53:32.558Z,24.5
2018-06-15T06:54:33.562Z,24.6
2018-06-15T06:55:34.610Z,24.4
2018-06-15T06:56:35.560Z,24.5
2018-06-15T06:57:36.556Z,24.5
2018-06-15T06:58:37.618Z,24.6
2018-06-15T06:59:38.550Z,24.6
2018-06-15T07:00:39.550Z,24.5
2018-06-15T07:01:40.549Z,24.6
2018-06-15T07:02:41.551Z,24.4
2018-06-15T07:03:42.545Z,24.5
2018-06-15T07:04:43.545Z,24.5
2018-06-15T07:05:44.596Z,24.5
2018-06-15T07:06:45.542Z,24.6
2018-06-15T07:07:46.540Z,24.5
2018-06-15T07:08:47.539Z,24.6
2018-06-15T07:09:48.538Z,24.5
2018-06-15T07:10:49.540Z,24.4
2018-06-15T07:11:50.535Z,24.5
2018-06-15T07:12:51.535Z,24.6
2018-06-15T07:13:52.537Z,24.4
2018-06-15T07:14:53.534Z,24.5
2018-06-15T07:15:54.534Z,24.4
2018-06-15T07:16:55.534Z,24.5
2018-06-15T07:17:56.529Z,24.5
2018-06-15T07:18:57.535Z,24.5
2018-06-15T07:19:58.533Z,24.4
2018-06-15T07:20:59.676Z,24.5
2018-06-15T07:22:00.526Z,24.5
2018-06-15T07:23:01.522Z,24.6
2018-06-15T07:24:02.524Z,24.5
2018-06-15T07:25:03.526Z,24.4
2018-06-15T07:26:04.524Z,24.5
2018-06-15T07:27:05.523Z,24.5
2018-06-15T07:28:06.519Z,24.5
2018-06-15T07:29:07.524Z,24.4
2018-06-15T07:30:08.515Z,24.6
2018-06-15T07:31:09.663Z,24.5
2018-06-15T07:32:10.515Z,24.6
2018-06-15T07:33:11.516Z,24.5
2018-06-15T07:34:12.514Z,24.5
2018-06-15T07:35:13.513Z,24.4
2018-06-15T07:36:14.615Z,24.5
2018-06-15T07:37:15.506Z,24.6
2018-06-15T07:38:16.504Z,24.8
2018-06-15T07:39:17.508Z,24.6
2018-06-15T07:40:18.506Z,24.6
2018-06-15T07:41:19.655Z,24.6
2018-06-15T07:42:20.502Z,24.6
2018-06-15T07:43:21.509Z,24.7
2018-06-15T07:44:22.498Z,24.6
2018-06-15T07:45:23.499Z,24.6
2018-06-15T07:46:24.649Z,24.7
2018-06-15T07:47:25.496Z,24.6
2018-06-15T07:48:26.498Z,24.6
2018-06-15T07:49:27.492Z,24.6
2018-06-15T07:50:28.493Z,24.6
2018-06-15T07:51:29.540Z,24.6
2018-06-15T07:52:30.536Z,24.6
2018-06-15T07:53:31.489Z,24.6
2018-06-15T07:54:32.489Z,24.6
2018-06-15T07:55:33.488Z,24.7
2018-06-15T07:56:34.485Z,24.7
2018-06-15T07:57:35.489Z,24.6
2018-06-15T07:58:36.485Z,24.6
2018-06-15T07:59:37.540Z,24.7
2018-06-15T08:00:38.478Z,24.7
2018-06-15T08:01:39.479Z,24.6
2018-06-15T08:02:40.478Z,24.7
2018-06-15T08:03:41.477Z,24.7
2018-06-15T08:04:42.475Z,24.7
2018-06-15T08:05:43.476Z,24.7
2018-06-15T08:06:44.473Z,24.8
2018-06-15T08:07:45.475Z,24.8
2018-06-15T08:08:46.469Z,24.6
2018-06-15T08:09:47.468Z,24.8
2018-06-15T08:10:48.471Z,24.7
2018-06-15T08:11:49.466Z,24.8
2018-06-15T08:12:50.468Z,24.8
2018-06-15T08:13:51.466Z,24.7
2018-06-15T08:14:52.461Z,24.7
2018-06-15T08:15:53.507Z,24.8
2018-06-15T08:16:54.810Z,24.9
2018-06-15T08:17:55.460Z,24.8
2018-06-15T08:18:56.461Z,24.8
2018-06-15T08:19:57.461Z,24.8
2018-06-15T08:20:58.457Z,24.8
2018-06-15T08:21:59.453Z,24.7
2018-06-15T08:23:00.457Z,24.8
2018-06-15T08:24:01.456Z,24.8
2018-06-15T08:25:02.451Z,24.8
2018-06-15T08:26:03.451Z,24.8
2018-06-15T08:27:04.606Z,24.8
2018-06-15T08:28:05.449Z,24.7
2018-06-15T08:29:06.453Z,24.8
2018-06-15T08:30:07.445Z,24.8
2018-06-15T08:31:08.449Z,24.8
2018-06-15T08:32:09.499Z,24.8
2018-06-15T08:33:10.443Z,24.8
2018-06-15T08:34:11.441Z,24.6
2018-06-15T08:35:12.437Z,24.7
2018-06-15T08:36:13.442Z,24.8
2018-06-15T08:37:14.789Z,24.8
2018-06-15T08:38:15.437Z,24.8
2018-06-15T08:39:16.439Z,24.8
2018-06-15T08:40:17.438Z,24.8
2018-06-15T08:41:18.436Z,24.8
2018-06-15T08:42:19.648Z,24.8
2018-06-15T08:43:20.433Z,24.8
2018-06-15T08:44:21.425Z,24.8
2018-06-15T08:45:22.429Z,24.9
2018-06-15T08:46:23.427Z,24.7
2018-06-15T08:47:24.780Z,24.6
2018-06-15T08:48:25.428Z,24.8
2018-06-15T08:49:26.433Z,24.7
2018-06-15T08:50:27.423Z,24.6
2018-06-15T08:51:28.419Z,24.6
2018-06-15T08:52:29.418Z,24.8
2018-06-15T08:53:30.420Z,24.5
2018-06-15T08:54:31.417Z,24.6
2018-06-15T08:55:32.418Z,24.7
2018-06-15T08:56:33.416Z,24.6
2018-06-15T08:57:34.564Z,24.7
2018-06-15T08:58:35.415Z,24.6
2018-06-15T08:59:36.411Z,24.6
2018-06-15T09:00:37.409Z,24.6
2018-06-15T09:01:38.411Z,24.6
2018-06-15T09:02:39.507Z,24.5
2018-06-15T09:03:40.406Z,24.6
2018-06-15T09:04:41.406Z,24.7
2018-06-15T09:05:42.409Z,24.6
2018-06-15T09:06:43.406Z,24.7
2018-06-15T09:07:44.506Z,24.6
2018-06-15T09:08:45.405Z,24.6
2018-06-15T09:09:46.403Z,24.6
2018-06-15T09:10:47.401Z,24.7
2018-06-15T09:11:48.398Z,24.6
2018-06-15T09:12:49.397Z,24.7
2018-06-15T09:13:50.394Z,24.8
2018-06-15T09:14:51.393Z,24.7
2018-06-15T09:15:52.400Z,24.8
2018-06-15T09:16:53.393Z,24.6
2018-06-15T09:17:54.543Z,24.6
2018-06-15T09:18:55.390Z,24.8
2018-06-15T09:19:56.396Z,24.7
2018-06-15T09:20:57.389Z,24.8
2018-06-15T09:21:58.386Z,24.7
2018-06-15T09:22:59.734Z,24.6
2018-06-15T09:24:00.386Z,24.7
2018-06-15T09:25:01.380Z,24.7
2018-06-15T09:26:02.384Z,24.8
2018-06-15T09:27:03.378Z,24.8
2018-06-15T09:28:04.532Z,24.8
2018-06-15T09:29:05.376Z,24.8
2018-06-15T09:30:06.378Z,24.8
2018-06-15T09:31:07.377Z,24.8
2018-06-15T09:32:08.374Z,24.8
2018-06-15T09:33:09.427Z,24.9
2018-06-15T09:34:10.370Z,24.8
2018-06-15T09:35:11.370Z,24.7
2018-06-15T09:36:12.367Z,24.8
2018-06-15T09:37:13.376Z,24.8
2018-06-15T09:38:14.517Z,24.8
2018-06-15T09:39:15.366Z,24.6
2018-06-15T09:40:16.364Z,24.7
2018-06-15T09:41:17.362Z,24.7
2018-06-15T09:42:18.367Z,24.8
2018-06-15T09:43:19.410Z,24.8
2018-06-15T09:44:20.372Z,24.8
2018-06-15T09:45:21.360Z,24.7
2018-06-15T09:46:22.362Z,24.7
2018-06-15T09:47:23.357Z,24.7
2018-06-15T09:48:24.355Z,24.8
2018-06-15T09:49:25.356Z,24.6
2018-06-15T09:50:26.351Z,24.8
2018-06-15T09:51:27.353Z,24.7
2018-06-15T09:52:28.351Z,24.6
2018-06-15T09:53:29.404Z,24.7
2018-06-15T09:54:30.351Z,24.8
2018-06-15T09:55:31.347Z,24.8
2018-06-15T09:56:32.345Z,24.6
2018-06-15T09:57:33.348Z,24.7
2018-06-15T09:58:34.508Z,24.7
2018-06-15T09:59:35.347Z,24.6
2018-06-15T10:00:36.343Z,24.7
2018-06-15T10:01:37.346Z,24.7
2018-06-15T10:02:38.338Z,24.6
2018-06-15T10:03:39.697Z,24.7
2018-06-15T10:04:40.337Z,24.5
2018-06-15T10:05:41.340Z,24.6
2018-06-15T10:06:42.339Z,24.6
2018-06-15T10:07:43.335Z,24.7
2018-06-15T10:08:44.390Z,24.7
2018-06-15T10:09:45.331Z,24.6
2018-06-15T10:10:46.332Z,24.6
2018-06-15T10:11:47.333Z,24.7
2018-06-15T10:12:48.332Z,24.6
2018-06-15T10:13:49.677Z,24.7
2018-06-15T10:14:50.326Z,24.7
2018-06-15T10:15:51.321Z,24.7
2018-06-15T10:16:52.328Z,24.7
2018-06-15T10:17:53.326Z,24.6
2018-06-15T10:18:54.671Z,24.6
2018-06-15T10:19:55.330Z,24.6
2018-06-15T10:20:56.317Z,24.7
2018-06-15T10:21:57.317Z,24.6
2018-06-15T10:22:58.320Z,24.6
2018-06-15T10:23:59.366Z,24.7
2018-06-15T10:25:00.317Z,24.7
2018-06-15T10:26:01.311Z,24.6
2018-06-15T10:27:02.312Z,24.7
2018-06-15T10:28:03.315Z,24.6
2018-06-15T10:29:04.312Z,24.7
2018-06-15T10:30:05.309Z,24.7
2018-06-15T10:31:06.307Z,24.6
2018-06-15T10:32:07.310Z,24.7
2018-06-15T10:33:08.367Z,24.7
2018-06-15T10:34:09.355Z,24.7
2018-06-15T10:35:10.309Z,24.6
2018-06-15T10:36:11.303Z,24.6
2018-06-15T10:37:12.302Z,24.6
2018-06-15T10:38:13.301Z,24.5
2018-06-15T10:39:14.330Z,24.8
2018-06-15T10:40:15.299Z,24.7
2018-06-15T10:41:16.297Z,24.8
2018-06-15T10:42:17.294Z,24.6
2018-06-15T10:43:18.292Z,24.7
2018-06-15T10:44:19.441Z,24.7
2018-06-15T10:45:20.292Z,24.6
2018-06-15T10:46:21.286Z,24.7
2018-06-15T10:47:22.285Z,24.7
2018-06-15T10:48:23.290Z,24.6
2018-06-15T10:49:24.296Z,24.6
2018-06-15T10:50:25.286Z,24.8
2018-06-15T10:51:26.285Z,24.7
2018-06-15T10:52:27.285Z,24.7
2018-06-15T10:53:28.287Z,24.6
2018-06-15T10:54:29.434Z,24.7
2018-06-15T10:55:30.278Z,24.8
2018-06-15T10:56:31.277Z,24.6
2018-06-15T10:57:32.277Z,24.7
2018-06-15T10:58:33.272Z,24.7
2018-06-15T10:59:34.426Z,24.8
2018-06-15T11:00:35.272Z,24.6
2018-06-15T11:01:36.269Z,24.8
2018-06-15T11:02:37.284Z,24.8
2018-06-15T11:03:38.268Z,24.8
2018-06-15T11:04:39.315Z,24.7
2018-06-15T11:05:40.269Z,24.8
2018-06-15T11:06:41.267Z,24.8
2018-06-15T11:07:42.264Z,24.8
2018-06-15T11:08:43.263Z,24.8
2018-06-15T11:09:44.362Z,24.9
2018-06-15T11:10:45.262Z,24.8
2018-06-15T11:11:46.261Z,24.8
2018-06-15T11:12:47.263Z,24.9
2018-06-15T11:13:48.267Z,24.8
2018-06-15T11:14:49.259Z,24.9
2018-06-15T11:15:50.253Z,24.9
2018-06-15T11:16:51.254Z,24.8
2018-06-15T11:17:52.253Z,24.9
2018-06-15T11:18:53.250Z,24.9
2018-06-15T11:19:54.435Z,24.7
2018-06-15T11:20:55.250Z,24.8
2018-06-15T11:21:56.253Z,24.9
2018-06-15T11:22:57.253Z,24.8
2018-06-15T11:23:58.248Z,24.9
2018-06-15T11:24:59.345Z,24.8
2018-06-15T11:26:00.243Z,24.9
2018-06-15T11:27:01.245Z,24.9
2018-06-15T11:28:02.243Z,24.7
2018-06-15T11:29:03.240Z,24.8
2018-06-15T11:30:04.297Z,24.7
2018-06-15T11:31:05.291Z,24.8
2018-06-15T11:32:06.238Z,24.9
2018-06-15T11:33:07.233Z,24.8
2018-06-15T11:34:08.236Z,24.8
2018-06-15T11:35:09.587Z,24.8
2018-06-15T11:36:10.231Z,24.8
2018-06-15T11:37:11.236Z,24.7
2018-06-15T11:38:12.229Z,24.8
2018-06-15T11:39:13.232Z,24.8
2018-06-15T11:40:14.380Z,24.7
2018-06-15T11:41:15.337Z,24.7
2018-06-15T11:42:16.224Z,24.8
2018-06-15T11:43:17.223Z,24.7
2018-06-15T11:44:18.222Z,24.7
2018-06-15T11:45:19.322Z,24.7
2018-06-15T11:46:20.227Z,24.9
2018-06-15T11:47:21.222Z,24.7
2018-06-15T11:48:22.220Z,24.7
2018-06-15T11:49:23.218Z,24.7
2018-06-15T11:50:24.265Z,24.7
2018-06-15T11:51:25.211Z,24.7
2018-06-15T11:52:26.222Z,24.7
2018-06-15T11:53:27.209Z,24.7
2018-06-15T11:54:28.215Z,24.7
2018-06-15T11:55:29.309Z,24.6
2018-06-15T11:56:30.206Z,24.7
2018-06-15T11:57:31.247Z,24.6
2018-06-15T11:58:32.222Z,24.6
2018-06-15T11:59:33.207Z,24.7
2018-06-15T12:00:34.261Z,24.8
2018-06-15T12:01:35.204Z,24.7
2018-06-15T12:02:36.203Z,24.5
2018-06-15T12:03:37.200Z,24.5
2018-06-15T12:04:38.198Z,24.6
2018-06-15T12:05:39.352Z,24.7
2018-06-15T12:06:40.197Z,24.6
2018-06-15T12:07:41.194Z,24.6
2018-06-15T12:08:42.194Z,24.7
2018-06-15T12:09:43.198Z,24.6
2018-06-15T12:10:44.538Z,24.6
2018-06-15T12:11:45.192Z,24.8
2018-06-15T12:12:46.190Z,24.5
2018-06-15T12:13:47.190Z,24.5
2018-06-15T12:14:48.186Z,24.5
2018-06-15T12:15:49.187Z,24.5
2018-06-15T12:16:50.185Z,24.6
2018-06-15T12:17:51.184Z,24.7
2018-06-15T12:18:52.181Z,24.6
2018-06-15T12:19:53.190Z,24.5
2018-06-15T12:20:54.179Z,24.4
2018-06-15T12:21:55.183Z,24.7
2018-06-15T12:22:56.177Z,24.6
2018-06-15T12:23:57.173Z,24.6
2018-06-15T12:24:58.181Z,24.5
2018-06-15T12:25:59.171Z,24.5
2018-06-15T12:27:00.177Z,24.6
2018-06-15T12:28:01.175Z,24.5
2018-06-15T12:29:02.179Z,24.5
2018-06-15T12:30:03.166Z,24.6
2018-06-15T12:31:04.170Z,24.4
2018-06-15T12:32:05.166Z,24.5
2018-06-15T12:33:06.170Z,24.5
2018-06-15T12:34:07.174Z,24.7
2018-06-15T12:35:08.165Z,24.5
2018-06-15T12:36:09.215Z,24.5
2018-06-15T12:37:10.163Z,24.5
2018-06-15T12:38:11.166Z,24.5
2018-06-15T12:39:12.158Z,24.4
2018-06-15T12:40:13.156Z,24.6
2018-06-15T12:41:14.303Z,24.4
2018-06-15T12:42:15.156Z,24.4
2018-06-15T12:43:16.157Z,24.4
2018-06-15T12:44:17.151Z,24.4
2018-06-15T12:45:18.154Z,24.6
2018-06-15T12:46:19.252Z,24.5
2018-06-15T12:47:20.157Z,24.5
2018-06-15T12:48:21.150Z,24.5
2018-06-15T12:49:22.150Z,24.4
2018-06-15T12:50:23.150Z,24.5
2018-06-15T12:51:24.296Z,24.5
2018-06-15T12:52:25.145Z,24.4
2018-06-15T12:53:26.146Z,24.4
2018-06-15T12:54:27.144Z,24.4
2018-06-15T12:55:28.146Z,24.6
2018-06-15T12:56:29.139Z,24.4
2018-06-15T12:57:30.135Z,24.3
2018-06-15T12:58:31.138Z,24.4
2018-06-15T12:59:32.135Z,24.5
2018-06-15T13:00:33.137Z,24.5
2018-06-15T13:01:34.183Z,24.5
2018-06-15T13:02:35.136Z,24.4
2018-06-15T13:03:36.130Z,24.6
2018-06-15T13:04:37.135Z,24.6
2018-06-15T13:05:38.129Z,24.5
2018-06-15T13:06:39.227Z,24.3
2018-06-15T13:07:40.132Z,24.5
2018-06-15T13:08:41.128Z,24.5
2018-06-15T13:09:42.126Z,24.3
2018-06-15T13:10:43.126Z,24.4
2018-06-15T13:11:44.121Z,24.5
2018-06-15T13:12:45.122Z,24.4
2018-06-15T13:13:46.123Z,24.5
2018-06-15T13:14:47.124Z,24.4
2018-06-15T13:15:48.119Z,24.5
2018-06-15T13:16:49.118Z,24.5
2018-06-15T13:17:50.127Z,24.5
2018-06-15T13:18:51.114Z,24.4
2018-06-15T13:19:52.111Z,24.5
2018-06-15T13:20:53.111Z,24.4
2018-06-15T13:21:54.162Z,24.4
2018-06-15T13:22:55.117Z,24.5
2018-06-15T13:23:56.109Z,24.4
2018-06-15T13:24:57.106Z,24.5
2018-06-15T13:25:58.111Z,24.6
2018-06-15T13:26:59.205Z,24.5
2018-06-15T13:28:00.104Z,24.5
2018-06-15T13:29:01.101Z,24.4
2018-06-15T13:30:02.106Z,24.5
2018-06-15T13:31:03.101Z,24.6
2018-06-15T13:32:04.202Z,24.5